createdAt,value
2023-12-30T00:00:17.980Z,6.40
2023-12-30T00:02:55.775Z,7.93
2023-12-30T00:05:28.128Z,7.32
2023-12-30T00:11:25.826Z,5.55
2023-12-30T00:13:53.545Z,7.80
2023-12-30T00:16:21.212Z,3.97
2023-12-30T00:18:51.388Z,6.57
2023-12-30T00:21:22.737Z,4.28
2023-12-30T00:23:50.898Z,8.27
2023-12-30T00:26:57.313Z,4.57
2023-12-30T00:32:56.762Z,3.88
2023-12-30T00:38:54.628Z,6.05
2023-12-30T00:41:26.398Z,4.63
2023-12-30T00:43:53.887Z,5.22
2023-12-30T00:46:23.303Z,6.38
2023-12-30T00:48:56.701Z,6.88
2023-12-30T00:51:25.781Z,6.22
2023-12-30T00:53:53.784Z,6.88
2023-12-30T00:57:23.237Z,4.50
2023-12-30T00:59:53.047Z,5.10
2023-12-30T01:02:20.613Z,4.72
2023-12-30T01:04:48.343Z,8.23
2023-12-30T01:07:15.770Z,6.72
2023-12-30T01:09:43.389Z,6.20
2023-12-30T01:12:10.838Z,6.47
2023-12-30T01:14:38.411Z,4.30
2023-12-30T01:17:05.768Z,5.90
2023-12-30T01:19:34.697Z,6.82
2023-12-30T01:25:23.691Z,6.30
2023-12-30T01:27:51.252Z,6.20
2023-12-30T01:30:18.740Z,5.47
2023-12-30T01:33:08.168Z,5.78
2023-12-30T01:35:39.092Z,7.20
2023-12-30T01:38:06.972Z,5.53
2023-12-30T01:41:20.366Z,6.35
2023-12-30T01:43:48.116Z,4.95
2023-12-30T01:46:15.914Z,6.45
2023-12-30T01:48:44.137Z,6.13
2023-12-30T01:51:24.239Z,5.13
2023-12-30T01:57:00.722Z,7.85
2023-12-30T01:59:30.085Z,5.78
2023-12-30T02:01:57.799Z,4.90
2023-12-30T05:27:33.569Z,12.38
2023-12-30T05:30:01.075Z,9.20
2023-12-30T05:32:30.816Z,10.00
2023-12-30T05:35:01.799Z,9.35
2023-12-30T05:37:30.146Z,9.63
2023-12-30T05:39:59.093Z,7.55
2023-12-30T05:42:26.663Z,6.85
2023-12-30T05:44:56.341Z,4.80
2023-12-30T05:47:27.586Z,7.88
2023-12-30T05:49:55.210Z,6.30
2023-12-30T05:52:22.817Z,4.50
2023-12-30T05:54:53.324Z,6.25
2023-12-30T06:24:58.250Z,12.35
2023-12-30T06:27:25.666Z,9.48
2023-12-30T06:29:55.552Z,7.72
2023-12-30T06:32:22.828Z,7.18
2023-12-30T06:34:50.929Z,10.30
2023-12-30T06:37:18.317Z,5.15
2023-12-30T06:39:46.571Z,6.95
2023-12-30T06:42:13.818Z,10.95
2023-12-30T06:44:41.187Z,10.48
2023-12-30T06:47:09.553Z,7.87
2023-12-30T06:49:43.952Z,8.48
2023-12-30T06:52:11.318Z,8.82
2023-12-30T06:54:38.804Z,6.57
2023-12-30T06:57:06.039Z,7.68
2023-12-30T06:59:36.380Z,6.60
2023-12-30T07:02:04.190Z,8.13
2023-12-30T07:04:31.455Z,10.52
2023-12-30T07:06:58.713Z,7.10
2023-12-30T07:09:26.142Z,8.10
2023-12-30T07:11:53.424Z,10.27
2023-12-30T07:14:20.847Z,11.63
2023-12-30T07:16:53.723Z,13.15
2023-12-30T07:19:23.655Z,10.50
2023-12-30T07:21:51.117Z,6.10
2023-12-30T07:24:21.309Z,10.60
2023-12-30T07:27:02.400Z,14.15
2023-12-30T07:29:33.938Z,8.95
2023-12-30T07:32:01.325Z,5.65
2023-12-30T07:34:28.690Z,10.10
2023-12-30T07:36:57.663Z,8.43
2023-12-30T07:39:26.103Z,7.15
2023-12-30T07:41:56.418Z,5.72
2023-12-30T07:44:25.760Z,12.60
2023-12-30T07:46:58.436Z,11.57
2023-12-30T07:49:25.854Z,7.33
2023-12-30T07:51:54.640Z,7.43
2023-12-30T07:54:22.569Z,15.48
2023-12-30T07:56:51.045Z,4.80
2023-12-30T07:59:23.050Z,6.70
2023-12-30T08:01:51.133Z,8.67
2023-12-30T08:04:18.517Z,8.88
2023-12-30T08:06:45.920Z,8.70
2023-12-30T08:09:13.378Z,9.43
2023-12-30T08:11:50.329Z,6.25
2023-12-30T08:14:26.060Z,8.20
2023-12-30T08:16:53.297Z,9.05
2023-12-30T08:19:20.628Z,6.07
2023-12-30T08:21:47.892Z,4.55
2023-12-30T08:24:46.535Z,7.22
2023-12-30T08:27:13.965Z,8.47
2023-12-30T08:29:41.251Z,5.05
2023-12-30T08:32:11.572Z,5.05
2023-12-30T08:34:38.912Z,6.80
2023-12-30T08:37:10.197Z,7.75
2023-12-30T08:39:43.284Z,4.70
2023-12-30T08:42:15.265Z,9.80
2023-12-30T08:44:45.059Z,9.02
2023-12-30T08:47:13.395Z,9.52
2023-12-30T08:49:40.915Z,10.13
2023-12-30T08:52:08.645Z,8.63
2023-12-30T08:54:40.456Z,5.50
2023-12-30T08:57:07.928Z,9.55
2023-12-30T08:59:35.264Z,5.45
2023-12-30T09:02:02.817Z,14.10
2023-12-30T09:04:30.581Z,8.07
2023-12-30T09:06:57.988Z,10.63
2023-12-30T09:09:25.286Z,10.40
2023-12-30T09:11:52.765Z,6.53
2023-12-30T09:14:32.001Z,8.07
2023-12-30T09:17:02.450Z,6.80
2023-12-30T09:19:35.080Z,11.63
2023-12-30T09:22:15.078Z,9.93
2023-12-30T09:24:43.256Z,8.23
2023-12-30T09:27:11.195Z,5.30
2023-12-30T09:29:54.386Z,5.60
2023-12-30T09:32:31.696Z,8.40
2023-12-30T09:35:23.103Z,9.35
2023-12-30T09:37:59.305Z,12.60
2023-12-30T09:43:27.643Z,11.73
2023-12-30T09:46:14.713Z,6.38
2023-12-30T09:48:55.120Z,10.43
2023-12-30T09:55:01.117Z,8.32
2023-12-30T09:57:33.575Z,8.63
2023-12-30T10:00:13.042Z,8.20
2023-12-30T10:03:10.754Z,11.68
2023-12-30T10:05:45.592Z,10.23
2023-12-30T10:08:14.716Z,7.05
2023-12-30T10:10:54.333Z,12.20
2023-12-30T10:13:28.708Z,6.70
2023-12-30T10:16:09.330Z,14.07
2023-12-30T10:18:45.222Z,6.78
2023-12-30T10:21:19.891Z,9.60
2023-12-30T10:23:54.588Z,7.17
2023-12-30T10:26:41.392Z,5.75
2023-12-30T11:18:17.071Z,8.23
2023-12-30T11:21:35.129Z,7.80
2023-12-30T11:24:21.862Z,9.40
2023-12-30T11:29:35.798Z,12.67
2023-12-30T11:32:13.656Z,10.05
2023-12-30T11:34:41.521Z,6.05
2023-12-30T11:37:11.109Z,4.88
2023-12-30T11:39:41.681Z,11.40
2023-12-30T11:42:19.818Z,12.17
2023-12-30T11:44:48.485Z,8.43
2023-12-30T11:47:23.296Z,11.18
2023-12-30T11:50:25.854Z,11.68
2023-12-30T11:52:54.219Z,6.88
2023-12-30T11:55:21.864Z,8.03
2023-12-30T11:57:49.631Z,10.13
2023-12-30T12:00:17.783Z,14.23
2023-12-30T12:02:45.401Z,12.25
2023-12-30T12:05:13.709Z,8.10
2023-12-30T12:08:41.404Z,9.20
2023-12-30T12:14:36.208Z,13.85
2023-12-30T12:17:07.047Z,12.07
2023-12-30T12:19:37.787Z,7.85
2023-12-30T12:22:06.155Z,7.47
2023-12-30T12:38:29.634Z,6.77
2023-12-30T12:40:57.733Z,6.90
2023-12-30T12:43:41.253Z,10.27
2023-12-30T12:46:10.337Z,9.10
2023-12-30T13:26:34.504Z,8.37
2023-12-30T13:29:01.843Z,9.43
2023-12-30T13:31:30.508Z,8.30
2023-12-30T13:34:01.345Z,16.63
2023-12-30T13:36:30.727Z,11.25
2023-12-30T13:39:07.733Z,10.47
2023-12-30T13:41:37.313Z,7.18
2023-12-30T13:44:11.160Z,8.00
2023-12-30T13:50:16.894Z,9.50
2023-12-30T13:52:44.974Z,17.60
2023-12-30T13:55:18.315Z,12.57
2023-12-30T13:57:54.334Z,10.00
2023-12-30T14:00:23.074Z,13.93
2023-12-30T14:02:53.834Z,16.67
2023-12-30T14:05:31.581Z,17.23
2023-12-30T14:08:13.634Z,15.50
2023-12-30T14:10:53.020Z,16.67
2023-12-30T14:13:25.986Z,13.13
2023-12-30T14:16:35.021Z,9.40
2023-12-30T14:19:02.679Z,11.97
2023-12-30T14:21:41.760Z,11.25
2023-12-30T14:38:48.058Z,12.93
2023-12-30T14:41:30.114Z,10.73
2023-12-30T14:44:05.052Z,5.72
2023-12-30T14:46:34.262Z,10.98
2023-12-30T16:06:34.844Z,36.38
2023-12-30T16:09:02.777Z,38.47
2023-12-30T16:11:31.285Z,56.47
2023-12-30T16:13:58.662Z,52.40
2023-12-30T16:16:26.099Z,50.60
2023-12-30T16:18:54.386Z,64.18
2023-12-30T16:21:21.762Z,40.08
2023-12-30T16:24:06.507Z,71.05
2023-12-30T16:26:34.254Z,76.50
2023-12-30T16:29:03.976Z,52.60
2023-12-30T16:31:32.143Z,68.53
2023-12-30T16:34:34.507Z,45.08
2023-12-30T16:37:02.039Z,33.70
2023-12-30T16:39:29.448Z,62.15
2023-12-30T16:41:57.399Z,43.30
2023-12-30T16:47:51.746Z,79.60
2023-12-30T16:50:20.060Z,71.93
2023-12-30T16:52:55.439Z,41.42
2023-12-30T16:55:22.807Z,50.23
2023-12-30T16:57:50.212Z,59.78
2023-12-30T17:00:38.393Z,32.90
2023-12-30T17:03:07.574Z,47.90
2023-12-30T17:05:35.061Z,74.22
2023-12-30T17:08:02.960Z,48.23
2023-12-30T17:11:16.328Z,58.25
2023-12-30T17:13:50.555Z,81.22
2023-12-30T17:16:22.015Z,54.20
2023-12-30T17:18:50.542Z,62.90
2023-12-30T17:21:17.962Z,28.17
2023-12-30T17:23:45.980Z,19.83
2023-12-30T17:26:13.536Z,38.53
2023-12-30T17:28:41.285Z,21.92
2023-12-30T17:31:11.062Z,20.50
2023-12-30T17:33:44.647Z,22.83
2023-12-30T17:36:13.327Z,16.45
2023-12-30T17:38:52.424Z,30.00
2023-12-30T17:41:41.490Z,39.92
2023-12-30T17:44:08.967Z,46.80
2023-12-30T17:50:11.076Z,36.15
2023-12-30T17:52:39.265Z,46.50
2023-12-30T17:55:07.732Z,53.40
2023-12-30T18:01:01.026Z,47.40
2023-12-30T18:03:28.547Z,52.80
2023-12-30T18:05:55.994Z,34.80
2023-12-30T18:08:23.471Z,20.35
2023-12-30T18:11:15.391Z,44.20
2023-12-30T18:13:43.871Z,50.50
2023-12-30T18:16:11.391Z,22.88
2023-12-30T18:18:39.073Z,36.78
2023-12-30T18:21:08.447Z,23.00
2023-12-30T18:23:36.055Z,43.85
2023-12-30T18:26:03.689Z,31.03
2023-12-30T18:28:31.238Z,23.52
2023-12-30T18:30:58.752Z,45.92
2023-12-30T18:33:27.486Z,29.77
2023-12-30T18:35:55.816Z,28.90
2023-12-30T18:38:23.074Z,25.13
2023-12-30T18:40:50.433Z,33.83
2023-12-30T18:43:20.136Z,32.65
2023-12-30T18:46:29.076Z,27.40
2023-12-30T18:49:00.546Z,23.20
2023-12-30T18:54:59.166Z,13.35
2023-12-30T18:57:53.345Z,28.85
2023-12-30T19:00:25.333Z,35.28
2023-12-30T19:02:55.573Z,25.35
2023-12-30T19:05:23.369Z,26.30
2023-12-30T19:46:08.132Z,15.68
2023-12-30T20:02:27.625Z,21.13
2023-12-30T20:08:39.533Z,18.48
2023-12-30T20:14:45.753Z,11.73
2023-12-30T20:35:24.661Z,20.60
